sensor_id;sensor_type;location;lat;lon;timestamp;temperature;humidity
19622;DHT22;9958;33.196;-97.114;2022-08-23T00:00:03;26.70;99.90
19622;DHT22;9958;33.196;-97.114;2022-08-23T00:02:34;26.70;99.90
19622;DHT22;9958;33.196;-97.114;2022-08-23T00:05:03;26.70;99.90
19622;DHT22;9958;33.196;-97.114;2022-08-23T00:07:31;26.70;99.90
19622;DHT22;9958;33.196;-97.114;2022-08-23T00:09:59;26.60;99.90
19622;DHT22;9958;33.196;-97.114;2022-08-23T00:12:27;26.60;99.90
19622;DHT22;9958;33.196;-97.114;2022-08-23T00:14:56;26.60;99.90
19622;DHT22;9958;33.196;-97.114;2022-08-23T00:17:24;26.60;99.90
19622;DHT22;9958;33.196;-97.114;2022-08-23T00:19:54;26.60;99.90
19622;DHT22;9958;33.196;-97.114;2022-08-23T00:22:22;26.60;99.90
19622;DHT22;9958;33.196;-97.114;2022-08-23T00:24:50;26.60;99.90
19622;DHT22;9958;33.196;-97.114;2022-08-23T00:27:18;26.60;99.90
19622;DHT22;9958;33.196;-97.114;2022-08-23T00:29:48;26.60;99.90
19622;DHT22;9958;33.196;-97.114;2022-08-23T00:32:19;26.60;99.90
19622;DHT22;9958;33.196;-97.114;2022-08-23T00:34:48;26.50;99.90
19622;DHT22;9958;33.196;-97.114;2022-08-23T00:37:19;26.40;99.90
19622;DHT22;9958;33.196;-97.114;2022-08-23T00:39:48;26.40;99.90
19622;DHT22;9958;33.196;-97.114;2022-08-23T00:42:28;26.30;99.90
19622;DHT22;9958;33.196;-97.114;2022-08-23T00:45:17;26.30;99.90
19622;DHT22;9958;33.196;-97.114;2022-08-23T00:48:04;26.30;99.90
19622;DHT22;9958;33.196;-97.114;2022-08-23T00:50:36;26.20;99.90
19622;DHT22;9958;33.196;-97.114;2022-08-23T00:53:13;26.20;99.90
19622;DHT22;9958;33.196;-97.114;2022-08-23T00:55:45;26.10;99.90
19622;DHT22;9958;33.196;-97.114;2022-08-23T00:58:15;26.00;99.90
19622;DHT22;9958;33.196;-97.114;2022-08-23T01:00:45;26.00;99.90
19622;DHT22;9958;33.196;-97.114;2022-08-23T01:03:13;25.90;99.90
19622;DHT22;9958;33.196;-97.114;2022-08-23T01:05:47;25.90;99.90
19622;DHT22;9958;33.196;-97.114;2022-08-23T01:08:19;25.80;99.90
19622;DHT22;9958;33.196;-97.114;2022-08-23T01:10:53;25.80;99.90
19622;DHT22;9958;33.196;-97.114;2022-08-23T01:13:27;25.70;99.90
19622;DHT22;9958;33.196;-97.114;2022-08-23T01:15:59;25.60;99.90
19622;DHT22;9958;33.196;-97.114;2022-08-23T01:18:30;25.60;99.90
19622;DHT22;9958;33.196;-97.114;2022-08-23T01:21:04;25.60;99.90
19622;DHT22;9958;33.196;-97.114;2022-08-23T01:23:40;25.60;99.90
19622;DHT22;9958;33.196;-97.114;2022-08-23T01:26:10;25.50;99.90
19622;DHT22;9958;33.196;-97.114;2022-08-23T01:28:39;25.50;99.90
19622;DHT22;9958;33.196;-97.114;2022-08-23T01:31:08;25.40;99.90
19622;DHT22;9958;33.196;-97.114;2022-08-23T01:33:38;25.40;99.90
19622;DHT22;9958;33.196;-97.114;2022-08-23T01:36:10;25.30;99.90
19622;DHT22;9958;33.196;-97.114;2022-08-23T01:38:40;25.40;99.90
19622;DHT22;9958;33.196;-97.114;2022-08-23T01:41:08;25.30;99.90
19622;DHT22;9958;33.196;-97.114;2022-08-23T01:43:37;25.30;99.90
19622;DHT22;9958;33.196;-97.114;2022-08-23T01:46:10;25.20;99.90
19622;DHT22;9958;33.196;-97.114;2022-08-23T01:48:38;25.20;99.90
19622;DHT22;9958;33.196;-97.114;2022-08-23T01:51:07;25.10;99.90
19622;DHT22;9958;33.196;-97.114;2022-08-23T01:53:36;25.10;99.90
19622;DHT22;9958;33.196;-97.114;2022-08-23T01:56:06;25.00;99.90
19622;DHT22;9958;33.196;-97.114;2022-08-23T01:58:35;25.00;99.90
19622;DHT22;9958;33.196;-97.114;2022-08-23T02:01:04;25.00;99.90
19622;DHT22;9958;33.196;-97.114;2022-08-23T02:03:33;25.00;99.90
19622;DHT22;9958;33.196;-97.114;2022-08-23T02:06:02;25.00;99.90
19622;DHT22;9958;33.196;-97.114;2022-08-23T02:08:31;25.00;99.90
19622;DHT22;9958;33.196;-97.114;2022-08-23T02:11:16;24.90;99.90
19622;DHT22;9958;33.196;-97.114;2022-08-23T02:13:47;24.90;99.90
19622;DHT22;9958;33.196;-97.114;2022-08-23T02:16:22;24.90;99.90
19622;DHT22;9958;33.196;-97.114;2022-08-23T02:18:51;24.80;99.90
19622;DHT22;9958;33.196;-97.114;2022-08-23T02:21:19;24.80;99.90
19622;DHT22;9958;33.196;-97.114;2022-08-23T02:23:48;24.80;99.90
19622;DHT22;9958;33.196;-97.114;2022-08-23T02:26:18;24.70;99.90
19622;DHT22;9958;33.196;-97.114;2022-08-23T02:28:50;24.70;99.90
19622;DHT22;9958;33.196;-97.114;2022-08-23T02:31:18;24.70;99.90
19622;DHT22;9958;33.196;-97.114;2022-08-23T02:33:46;24.60;99.90
19622;DHT22;9958;33.196;-97.114;2022-08-23T02:36:15;24.60;99.90
19622;DHT22;9958;33.196;-97.114;2022-08-23T02:38:43;24.50;99.90
19622;DHT22;9958;33.196;-97.114;2022-08-23T02:41:11;24.50;99.90
19622;DHT22;9958;33.196;-97.114;2022-08-23T02:43:43;24.50;99.90
19622;DHT22;9958;33.196;-97.114;2022-08-23T02:46:12;24.50;99.90
19622;DHT22;9958;33.196;-97.114;2022-08-23T02:48:40;24.50;99.90
19622;DHT22;9958;33.196;-97.114;2022-08-23T02:51:08;24.40;99.90
19622;DHT22;9958;33.196;-97.114;2022-08-23T02:53:37;24.40;99.90
19622;DHT22;9958;33.196;-97.114;2022-08-23T02:56:06;24.30;99.90
19622;DHT22;9958;33.196;-97.114;2022-08-23T02:58:34;24.30;99.90
19622;DHT22;9958;33.196;-97.114;2022-08-23T03:01:04;24.30;99.90
19622;DHT22;9958;33.196;-97.114;2022-08-23T03:03:33;24.30;99.90
19622;DHT22;9958;33.196;-97.114;2022-08-23T03:06:01;24.20;99.90
19622;DHT22;9958;33.196;-97.114;2022-08-23T03:08:29;24.20;99.90
19622;DHT22;9958;33.196;-97.114;2022-08-23T03:10:57;24.20;99.90
19622;DHT22;9958;33.196;-97.114;2022-08-23T03:13:25;24.10;99.90
19622;DHT22;9958;33.196;-97.114;2022-08-23T03:15:54;24.10;99.90
19622;DHT22;9958;33.196;-97.114;2022-08-23T03:18:24;24.10;99.90
19622;DHT22;9958;33.196;-97.114;2022-08-23T03:20:52;24.10;99.90
19622;DHT22;9958;33.196;-97.114;2022-08-23T03:23:20;24.00;99.90
19622;DHT22;9958;33.196;-97.114;2022-08-23T03:25:48;24.00;99.90
19622;DHT22;9958;33.196;-97.114;2022-08-23T03:28:17;24.00;99.90
19622;DHT22;9958;33.196;-97.114;2022-08-23T03:30:45;24.00;99.90
19622;DHT22;9958;33.196;-97.114;2022-08-23T03:33:13;24.00;99.90
19622;DHT22;9958;33.196;-97.114;2022-08-23T03:35:43;24.00;99.90
19622;DHT22;9958;33.196;-97.114;2022-08-23T03:38:12;23.90;99.90
19622;DHT22;9958;33.196;-97.114;2022-08-23T03:40:41;23.90;99.90
19622;DHT22;9958;33.196;-97.114;2022-08-23T03:43:09;23.90;99.90
19622;DHT22;9958;33.196;-97.114;2022-08-23T03:45:37;23.90;99.90
19622;DHT22;9958;33.196;-97.114;2022-08-23T03:48:06;23.80;99.90
19622;DHT22;9958;33.196;-97.114;2022-08-23T03:50:34;23.90;99.90
19622;DHT22;9958;33.196;-97.114;2022-08-23T03:53:04;23.90;99.90
19622;DHT22;9958;33.196;-97.114;2022-08-23T03:55:33;23.80;99.90
19622;DHT22;9958;33.196;-97.114;2022-08-23T03:58:01;23.80;99.90
19622;DHT22;9958;33.196;-97.114;2022-08-23T04:00:29;23.80;99.90
19622;DHT22;9958;33.196;-97.114;2022-08-23T04:02:57;23.80;99.90
19622;DHT22;9958;33.196;-97.114;2022-08-23T04:05:26;23.80;99.90
19622;DHT22;9958;33.196;-97.114;2022-08-23T04:07:54;23.80;99.90
19622;DHT22;9958;33.196;-97.114;2022-08-23T04:10:24;23.70;99.90
19622;DHT22;9958;33.196;-97.114;2022-08-23T04:12:52;23.70;99.90
19622;DHT22;9958;33.196;-97.114;2022-08-23T04:15:22;23.70;99.90
19622;DHT22;9958;33.196;-97.114;2022-08-23T04:17:50;23.70;99.90
19622;DHT22;9958;33.196;-97.114;2022-08-23T04:20:19;23.70;99.90
19622;DHT22;9958;33.196;-97.114;2022-08-23T04:22:51;23.70;99.90
19622;DHT22;9958;33.196;-97.114;2022-08-23T04:25:20;23.70;99.90
19622;DHT22;9958;33.196;-97.114;2022-08-23T04:27:50;23.70;99.90
19622;DHT22;9958;33.196;-97.114;2022-08-23T04:30:18;23.60;99.90
19622;DHT22;9958;33.196;-97.114;2022-08-23T04:32:47;23.60;99.90
19622;DHT22;9958;33.196;-97.114;2022-08-23T04:35:15;23.60;99.90
19622;DHT22;9958;33.196;-97.114;2022-08-23T04:37:44;23.60;99.90
19622;DHT22;9958;33.196;-97.114;2022-08-23T04:40:12;23.60;99.90
19622;DHT22;9958;33.196;-97.114;2022-08-23T04:42:59;23.60;99.90
19622;DHT22;9958;33.196;-97.114;2022-08-23T04:45:27;23.60;99.90
19622;DHT22;9958;33.196;-97.114;2022-08-23T04:47:56;23.60;99.90
19622;DHT22;9958;33.196;-97.114;2022-08-23T04:50:24;23.60;99.90
19622;DHT22;9958;33.196;-97.114;2022-08-23T04:52:53;23.60;99.90
19622;DHT22;9958;33.196;-97.114;2022-08-23T04:55:21;23.60;99.90
19622;DHT22;9958;33.196;-97.114;2022-08-23T04:57:49;23.60;99.90
19622;DHT22;9958;33.196;-97.114;2022-08-23T05:00:20;23.60;99.90
19622;DHT22;9958;33.196;-97.114;2022-08-23T05:02:48;23.60;99.90
19622;DHT22;9958;33.196;-97.114;2022-08-23T05:05:18;23.60;99.90
19622;DHT22;9958;33.196;-97.114;2022-08-23T05:07:46;23.60;99.90
19622;DHT22;9958;33.196;-97.114;2022-08-23T05:10:16;23.60;99.90
19622;DHT22;9958;33.196;-97.114;2022-08-23T05:12:44;23.60;99.90
19622;DHT22;9958;33.196;-97.114;2022-08-23T05:15:13;23.60;99.90
19622;DHT22;9958;33.196;-97.114;2022-08-23T05:17:43;23.60;99.90
19622;DHT22;9958;33.196;-97.114;2022-08-23T05:20:11;23.60;99.90
19622;DHT22;9958;33.196;-97.114;2022-08-23T05:22:41;23.60;99.90
19622;DHT22;9958;33.196;-97.114;2022-08-23T05:25:09;23.60;99.90
19622;DHT22;9958;33.196;-97.114;2022-08-23T05:27:38;23.60;99.90
19622;DHT22;9958;33.196;-97.114;2022-08-23T05:30:07;23.60;99.90
19622;DHT22;9958;33.196;-97.114;2022-08-23T05:32:36;23.60;99.90
19622;DHT22;9958;33.196;-97.114;2022-08-23T05:35:07;23.60;99.90
19622;DHT22;9958;33.196;-97.114;2022-08-23T05:37:35;23.60;99.90
19622;DHT22;9958;33.196;-97.114;2022-08-23T05:40:04;23.60;99.90
19622;DHT22;9958;33.196;-97.114;2022-08-23T05:42:32;23.60;99.90
19622;DHT22;9958;33.196;-97.114;2022-08-23T05:45:01;23.60;99.90
19622;DHT22;9958;33.196;-97.114;2022-08-23T05:47:29;23.60;99.90
19622;DHT22;9958;33.196;-97.114;2022-08-23T05:49:57;23.70;99.90
19622;DHT22;9958;33.196;-97.114;2022-08-23T05:52:27;23.70;99.90
19622;DHT22;9958;33.196;-97.114;2022-08-23T05:54:55;23.70;99.90
19622;DHT22;9958;33.196;-97.114;2022-08-23T17:48:06;26.90;99.90
19622;DHT22;9958;33.196;-97.114;2022-08-23T17:50:36;27.10;99.90
19622;DHT22;9958;33.196;-97.114;2022-08-23T17:53:05;27.30;99.90
19622;DHT22;9958;33.196;-97.114;2022-08-23T17:55:35;27.30;99.90
19622;DHT22;9958;33.196;-97.114;2022-08-23T17:58:04;27.40;99.90
19622;DHT22;9958;33.196;-97.114;2022-08-23T18:00:34;27.30;99.90
19622;DHT22;9958;33.196;-97.114;2022-08-23T18:03:03;27.20;99.90
19622;DHT22;9958;33.196;-97.114;2022-08-23T18:05:34;27.20;99.90
19622;DHT22;9958;33.196;-97.114;2022-08-23T18:08:05;27.30;99.90
19622;DHT22;9958;33.196;-97.114;2022-08-23T18:10:34;27.40;99.90
19622;DHT22;9958;33.196;-97.114;2022-08-23T18:13:02;27.40;99.90
19622;DHT22;9958;33.196;-97.114;2022-08-23T18:15:31;27.50;99.90
19622;DHT22;9958;33.196;-97.114;2022-08-23T18:17:59;27.70;99.90
19622;DHT22;9958;33.196;-97.114;2022-08-23T18:20:28;27.80;99.90
19622;DHT22;9958;33.196;-97.114;2022-08-23T18:22:59;27.90;99.90
19622;DHT22;9958;33.196;-97.114;2022-08-23T18:25:27;28.00;99.90
19622;DHT22;9958;33.196;-97.114;2022-08-23T18:27:56;28.10;99.90
19622;DHT22;9958;33.196;-97.114;2022-08-23T18:30:32;28.30;99.90
19622;DHT22;9958;33.196;-97.114;2022-08-23T18:33:00;28.40;99.90
19622;DHT22;9958;33.196;-97.114;2022-08-23T18:35:29;28.60;99.90
19622;DHT22;9958;33.196;-97.114;2022-08-23T18:38:00;28.70;99.90
19622;DHT22;9958;33.196;-97.114;2022-08-23T18:40:28;28.80;99.90
19622;DHT22;9958;33.196;-97.114;2022-08-23T18:42:57;28.80;99.90
19622;DHT22;9958;33.196;-97.114;2022-08-23T18:45:25;28.80;99.90
19622;DHT22;9958;33.196;-97.114;2022-08-23T18:47:54;28.70;99.90
19622;DHT22;9958;33.196;-97.114;2022-08-23T18:50:22;28.70;99.90
19622;DHT22;9958;33.196;-97.114;2022-08-23T18:52:50;28.70;99.90
19622;DHT22;9958;33.196;-97.114;2022-08-23T18:55:21;28.60;99.90
19622;DHT22;9958;33.196;-97.114;2022-08-23T18:57:49;28.60;99.90
19622;DHT22;9958;33.196;-97.114;2022-08-23T19:00:17;28.60;99.90
19622;DHT22;9958;33.196;-97.114;2022-08-23T19:02:46;28.60;99.90
19622;DHT22;9958;33.196;-97.114;2022-08-23T19:05:14;28.40;99.90
19622;DHT22;9958;33.196;-97.114;2022-08-23T19:07:42;28.40;99.90
19622;DHT22;9958;33.196;-97.114;2022-08-23T19:10:10;28.50;99.90
19622;DHT22;9958;33.196;-97.114;2022-08-23T19:12:40;28.40;99.90
19622;DHT22;9958;33.196;-97.114;2022-08-23T19:15:10;28.40;99.90
19622;DHT22;9958;33.196;-97.114;2022-08-23T19:17:39;28.30;99.90
19622;DHT22;9958;33.196;-97.114;2022-08-23T19:20:08;28.30;99.90
19622;DHT22;9958;33.196;-97.114;2022-08-23T19:22:36;28.50;99.90
19622;DHT22;9958;33.196;-97.114;2022-08-23T19:25:06;28.60;99.90
19622;DHT22;9958;33.196;-97.114;2022-08-23T19:27:36;28.80;99.90
19622;DHT22;9958;33.196;-97.114;2022-08-23T19:30:08;29.00;99.90
19622;DHT22;9958;33.196;-97.114;2022-08-23T19:32:38;29.10;99.90
19622;DHT22;9958;33.196;-97.114;2022-08-23T19:35:07;29.30;99.90
19622;DHT22;9958;33.196;-97.114;2022-08-23T19:37:36;29.50;99.90
19622;DHT22;9958;33.196;-97.114;2022-08-23T19:40:06;29.60;99.90
19622;DHT22;9958;33.196;-97.114;2022-08-23T19:42:34;29.70;99.90
19622;DHT22;9958;33.196;-97.114;2022-08-23T22:13:18;30.70;99.90
19622;DHT22;9958;33.196;-97.114;2022-08-23T22:15:46;30.60;99.90
19622;DHT22;9958;33.196;-97.114;2022-08-23T22:18:14;30.40;99.90
19622;DHT22;9958;33.196;-97.114;2022-08-23T22:20:43;30.30;99.90
19622;DHT22;9958;33.196;-97.114;2022-08-23T22:23:11;30.10;99.90
19622;DHT22;9958;33.196;-97.114;2022-08-23T22:25:39;30.00;99.90
19622;DHT22;9958;33.196;-97.114;2022-08-23T22:28:08;29.60;99.90
19622;DHT22;9958;33.196;-97.114;2022-08-23T22:30:39;29.50;99.90
19622;DHT22;9958;33.196;-97.114;2022-08-23T22:33:08;29.40;99.90
19622;DHT22;9958;33.196;-97.114;2022-08-23T22:35:36;29.20;99.90
19622;DHT22;9958;33.196;-97.114;2022-08-23T22:38:05;29.10;99.90
19622;DHT22;9958;33.196;-97.114;2022-08-23T22:40:34;29.10;99.90
19622;DHT22;9958;33.196;-97.114;2022-08-23T22:43:02;29.00;99.90
19622;DHT22;9958;33.196;-97.114;2022-08-23T22:45:30;29.00;99.90
19622;DHT22;9958;33.196;-97.114;2022-08-23T22:48:00;28.90;99.90
19622;DHT22;9958;33.196;-97.114;2022-08-23T22:50:28;28.80;99.90
19622;DHT22;9958;33.196;-97.114;2022-08-23T22:52:57;28.90;99.90
19622;DHT22;9958;33.196;-97.114;2022-08-23T22:55:25;28.80;99.90
19622;DHT22;9958;33.196;-97.114;2022-08-23T22:57:53;28.70;99.90
19622;DHT22;9958;33.196;-97.114;2022-08-23T23:00:22;28.70;99.90
19622;DHT22;9958;33.196;-97.114;2022-08-23T23:02:50;28.60;99.90
19622;DHT22;9958;33.196;-97.114;2022-08-23T23:05:20;28.50;99.90
19622;DHT22;9958;33.196;-97.114;2022-08-23T23:07:48;28.40;99.90
19622;DHT22;9958;33.196;-97.114;2022-08-23T23:10:33;28.30;99.90
19622;DHT22;9958;33.196;-97.114;2022-08-23T23:13:02;28.20;99.90
19622;DHT22;9958;33.196;-97.114;2022-08-23T23:15:30;28.20;99.90
19622;DHT22;9958;33.196;-97.114;2022-08-23T23:17:58;28.10;99.90
19622;DHT22;9958;33.196;-97.114;2022-08-23T23:20:28;28.00;99.90
19622;DHT22;9958;33.196;-97.114;2022-08-23T23:23:06;28.00;99.90
19622;DHT22;9958;33.196;-97.114;2022-08-23T23:25:35;27.90;99.90
19622;DHT22;9958;33.196;-97.114;2022-08-23T23:28:04;27.90;99.90
19622;DHT22;9958;33.196;-97.114;2022-08-23T23:30:33;27.80;99.90
19622;DHT22;9958;33.196;-97.114;2022-08-23T23:33:02;27.80;99.90
19622;DHT22;9958;33.196;-97.114;2022-08-23T23:35:33;27.80;99.90
19622;DHT22;9958;33.196;-97.114;2022-08-23T23:38:01;27.70;99.90
19622;DHT22;9958;33.196;-97.114;2022-08-23T23:40:30;27.70;99.90
19622;DHT22;9958;33.196;-97.114;2022-08-23T23:42:59;27.80;99.90
19622;DHT22;9958;33.196;-97.114;2022-08-23T23:45:27;27.80;99.90
19622;DHT22;9958;33.196;-97.114;2022-08-23T23:47:55;27.60;99.90
19622;DHT22;9958;33.196;-97.114;2022-08-23T23:50:24;27.60;99.90
19622;DHT22;9958;33.196;-97.114;2022-08-23T23:52:54;27.60;99.90
19622;DHT22;9958;33.196;-97.114;2022-08-23T23:55:22;27.60;99.90
19622;DHT22;9958;33.196;-97.114;2022-08-23T23:57:50;27.50;99.90
